sensor_id;sensor_type;location;lat;lon;timestamp;pressure;altitude;pressure_sealevel;temperature;humidity
72892;BME280;61032;50.782;6.818;2023-04-30T00:00:12;101120.00;;;10.58;77.11
72892;BME280;61032;50.782;6.818;2023-04-30T00:01:12;101125.00;;;10.56;76.45
72892;BME280;61032;50.782;6.818;2023-04-30T00:02:12;101120.31;;;10.56;76.71
72892;BME280;61032;50.782;6.818;2023-04-30T00:03:13;101124.94;;;10.47;76.96
72892;BME280;61032;50.782;6.818;2023-04-30T00:04:13;101128.00;;;10.46;77.30
72892;BME280;61032;50.782;6.818;2023-04-30T00:05:13;101131.84;;;10.45;77.48
72892;BME280;61032;50.782;6.818;2023-04-30T00:06:14;101134.09;;;10.43;77.36
72892;BME280;61032;50.782;6.818;2023-04-30T00:07:15;101141.53;;;10.42;77.61
72892;BME280;61032;50.782;6.818;2023-04-30T00:08:15;101128.25;;;10.36;77.40
72892;BME280;61032;50.782;6.818;2023-04-30T00:09:15;101130.13;;;10.26;77.80
72892;BME280;61032;50.782;6.818;2023-04-30T00:10:15;101132.38;;;10.24;78.13
72892;BME280;61032;50.782;6.818;2023-04-30T00:11:16;101131.69;;;10.19;77.61
72892;BME280;61032;50.782;6.818;2023-04-30T00:12:16;101133.22;;;10.11;78.38
72892;BME280;61032;50.782;6.818;2023-04-30T00:13:16;101132.91;;;10.13;77.91
72892;BME280;61032;50.782;6.818;2023-04-30T00:14:17;101138.28;;;10.18;78.20
72892;BME280;61032;50.782;6.818;2023-04-30T00:15:18;101132.59;;;10.14;77.73
72892;BME280;61032;50.782;6.818;2023-04-30T00:16:18;101132.22;;;10.07;78.09
72892;BME280;61032;50.782;6.818;2023-04-30T00:17:18;101135.56;;;10.04;78.44
72892;BME280;61032;50.782;6.818;2023-04-30T00:18:19;101128.66;;;10.07;78.49
72892;BME280;61032;50.782;6.818;2023-04-30T00:19:19;101134.97;;;10.07;77.89
72892;BME280;61032;50.782;6.818;2023-04-30T00:20:19;101135.78;;;10.08;77.45
72892;BME280;61032;50.782;6.818;2023-04-30T00:21:20;101136.78;;;10.12;77.74
72892;BME280;61032;50.782;6.818;2023-04-30T00:22:20;101143.59;;;10.14;77.11
72892;BME280;61032;50.782;6.818;2023-04-30T00:23:20;101136.78;;;10.12;77.49
72892;BME280;61032;50.782;6.818;2023-04-30T00:24:21;101142.59;;;10.10;77.33
72892;BME280;61032;50.782;6.818;2023-04-30T00:25:21;101140.34;;;10.12;77.53
72892;BME280;61032;50.782;6.818;2023-04-30T00:26:23;101139.53;;;10.12;77.45
72892;BME280;61032;50.782;6.818;2023-04-30T00:27:23;101144.41;;;10.15;76.92
72892;BME280;61032;50.782;6.818;2023-04-30T00:28:24;101151.94;;;10.09;76.70
72892;BME280;61032;50.782;6.818;2023-04-30T00:29:24;101144.81;;;10.08;77.26
72892;BME280;61032;50.782;6.818;2023-04-30T00:30:25;101143.19;;;10.07;77.34
72892;BME280;61032;50.782;6.818;2023-04-30T00:31:25;101144.81;;;10.08;77.18
72892;BME280;61032;50.782;6.818;2023-04-30T00:32:25;101138.72;;;10.11;77.39
72892;BME280;61032;50.782;6.818;2023-04-30T00:33:25;101140.97;;;10.09;77.09
72892;BME280;61032;50.782;6.818;2023-04-30T00:34:26;101143.72;;;10.09;76.62
72892;BME280;61032;50.782;6.818;2023-04-30T00:35:26;101149.50;;;10.08;76.86
72892;BME280;61032;50.782;6.818;2023-04-30T00:36:26;101147.94;;;9.93;76.61
72892;BME280;61032;50.782;6.818;2023-04-30T00:37:27;101150.59;;;9.84;76.49
72892;BME280;61032;50.782;6.818;2023-04-30T00:38:27;101136.34;;;9.82;76.59
72892;BME280;61032;50.782;6.818;2023-04-30T00:39:27;101150.84;;;9.74;76.59
72892;BME280;61032;50.782;6.818;2023-04-30T00:40:28;101145.34;;;9.74;77.07
72892;BME280;61032;50.782;6.818;2023-04-30T00:41:29;101143.13;;;9.62;77.77
72892;BME280;61032;50.782;6.818;2023-04-30T00:42:29;101148.09;;;9.60;77.77
72892;BME280;61032;50.782;6.818;2023-04-30T00:43:30;101149.22;;;9.59;78.08
72892;BME280;61032;50.782;6.818;2023-04-30T00:44:30;101143.13;;;9.62;77.87
72892;BME280;61032;50.782;6.818;2023-04-30T00:45:30;101144.75;;;9.63;77.90
72892;BME280;61032;50.782;6.818;2023-04-30T00:46:31;101146.38;;;9.64;77.75
72892;BME280;61032;50.782;6.818;2023-04-30T00:47:31;101139.56;;;9.62;77.64
72892;BME280;61032;50.782;6.818;2023-04-30T00:48:31;101142.09;;;9.58;77.88
72892;BME280;61032;50.782;6.818;2023-04-30T00:49:32;101143.94;;;9.63;78.10
72892;BME280;61032;50.782;6.818;2023-04-30T00:50:35;101140.56;;;9.66;77.75
72892;BME280;61032;50.782;6.818;2023-04-30T00:51:36;101140.38;;;9.62;77.98
72892;BME280;61032;50.782;6.818;2023-04-30T00:52:42;101143.94;;;9.63;78.41
72892;BME280;61032;50.782;6.818;2023-04-30T00:53:43;101141.50;;;9.61;78.20
72892;BME280;61032;50.782;6.818;2023-04-30T00:54:44;101151.56;;;9.66;77.86
72892;BME280;61032;50.782;6.818;2023-04-30T00:55:44;101140.06;;;9.64;77.52
72892;BME280;61032;50.782;6.818;2023-04-30T00:56:44;101139.38;;;9.45;77.42
72892;BME280;61032;50.782;6.818;2023-04-30T00:57:45;101136.34;;;9.46;77.79
72892;BME280;61032;50.782;6.818;2023-04-30T00:58:46;101144.56;;;9.46;77.72
72892;BME280;61032;50.782;6.818;2023-04-30T00:59:47;101146.50;;;9.46;77.71
72892;BME280;61032;50.782;6.818;2023-04-30T01:00:47;101144.66;;;9.41;77.12
72892;BME280;61032;50.782;6.818;2023-04-30T01:01:49;101142.22;;;9.40;77.35
72892;BME280;61032;50.782;6.818;2023-04-30T01:02:49;101140.44;;;9.35;77.90
72892;BME280;61032;50.782;6.818;2023-04-30T01:03:49;101140.09;;;9.37;78.83
72892;BME280;61032;50.782;6.818;2023-04-30T01:04:50;101139.91;;;9.33;78.75
72892;BME280;61032;50.782;6.818;2023-04-30T01:05:51;101144.47;;;9.24;78.42
72892;BME280;61032;50.782;6.818;2023-04-30T01:06:52;101136.84;;;9.21;78.73
72892;BME280;61032;50.782;6.818;2023-04-30T01:07:55;101139.00;;;9.24;78.42
72892;BME280;61032;50.782;6.818;2023-04-30T01:08:55;101145.69;;;9.18;78.84
72892;BME280;61032;50.782;6.818;2023-04-30T01:09:56;101148.44;;;9.18;78.98
72892;BME280;61032;50.782;6.818;2023-04-30T01:11:15;101142.03;;;9.22;78.24
72892;BME280;61032;50.782;6.818;2023-04-30T01:12:46;101142.56;;;9.11;78.24
72892;BME280;61032;50.782;6.818;2023-04-30T01:16:27;101146.50;;;9.05;78.23
72892;BME280;61032;50.782;6.818;2023-04-30T01:17:33;101137.88;;;9.11;77.96
72892;BME280;61032;50.782;6.818;2023-04-30T01:18:59;101140.03;;;9.14;77.85
72892;BME280;61032;50.782;6.818;2023-04-30T01:19:58;101144.38;;;9.15;78.71
72892;BME280;61032;50.782;6.818;2023-04-30T01:21:03;101141.84;;;9.19;78.55
72892;BME280;61032;50.782;6.818;2023-04-30T01:22:05;101140.50;;;9.16;78.21
72892;BME280;61032;50.782;6.818;2023-04-30T01:23:21;101141.31;;;9.17;77.72
72892;BME280;61032;50.782;6.818;2023-04-30T01:24:36;101139.50;;;9.12;77.97
72892;BME280;61032;50.782;6.818;2023-04-30T01:25:43;101145.09;;;9.07;77.62
72892;BME280;61032;50.782;6.818;2023-04-30T01:28:19;101140.22;;;9.04;77.19
72892;BME280;61032;50.782;6.818;2023-04-30T01:29:20;101140.22;;;9.04;77.23
72892;BME280;61032;50.782;6.818;2023-04-30T01:30:21;101129.16;;;9.09;76.95
72892;BME280;61032;50.782;6.818;2023-04-30T01:31:23;101134.13;;;9.07;77.11
72892;BME280;61032;50.782;6.818;2023-04-30T01:32:23;101130.56;;;9.07;76.78
72892;BME280;61032;50.782;6.818;2023-04-30T01:33:23;101133.22;;;9.12;76.82
72892;BME280;61032;50.782;6.818;2023-04-30T01:34:24;101139.91;;;9.19;76.43
72892;BME280;61032;50.782;6.818;2023-04-30T01:38:08;101139.69;;;9.16;76.85
72892;BME280;61032;50.782;6.818;2023-04-30T01:39:34;101130.97;;;9.14;76.58
72892;BME280;61032;50.782;6.818;2023-04-30T01:41:59;101140.94;;;9.10;76.94
72892;BME280;61032;50.782;6.818;2023-04-30T01:43:24;101137.69;;;9.08;77.21
72892;BME280;61032;50.782;6.818;2023-04-30T01:44:47;101136.66;;;9.04;77.51
72892;BME280;61032;50.782;6.818;2023-04-30T01:46:17;101140.09;;;8.95;77.46
72892;BME280;61032;50.782;6.818;2023-04-30T01:48:44;101142.22;;;8.85;77.67
72892;BME280;61032;50.782;6.818;2023-04-30T01:50:14;101137.34;;;8.82;78.21
72892;BME280;61032;50.782;6.818;2023-04-30T01:51:24;101140.69;;;8.79;78.78
72892;BME280;61032;50.782;6.818;2023-04-30T01:52:45;101145.78;;;8.85;78.47
72892;BME280;61032;50.782;6.818;2023-04-30T01:53:46;101142.00;;;8.81;77.77
72892;BME280;61032;50.782;6.818;2023-04-30T01:54:54;101148.63;;;8.80;77.96
72892;BME280;61032;50.782;6.818;2023-04-30T01:56:05;101143.72;;;8.77;77.78
72892;BME280;61032;50.782;6.818;2023-04-30T01:57:06;101144.31;;;8.74;77.91
72892;BME280;61032;50.782;6.818;2023-04-30T01:58:12;101149.41;;;8.67;77.97
72892;BME280;61032;50.782;6.818;2023-04-30T01:59:13;101142.31;;;8.66;78.10
72892;BME280;61032;50.782;6.818;2023-04-30T02:00:14;101147.88;;;8.61;78.40
72892;BME280;61032;50.782;6.818;2023-04-30T02:01:31;101146.75;;;8.62;78.22
72892;BME280;61032;50.782;6.818;2023-04-30T02:02:31;101147.56;;;8.63;78.06
72892;BME280;61032;50.782;6.818;2023-04-30T02:03:32;101157.72;;;8.62;78.48
72892;BME280;61032;50.782;6.818;2023-04-30T02:04:32;101151.63;;;8.65;78.06
72892;BME280;61032;50.782;6.818;2023-04-30T02:05:33;101155.50;;;8.64;77.74
72892;BME280;61032;50.782;6.818;2023-04-30T02:06:33;101156.47;;;8.54;78.09
72892;BME280;61032;50.782;6.818;2023-04-30T02:07:38;101155.34;;;8.55;78.48
72892;BME280;61032;50.782;6.818;2023-04-30T02:08:38;101152.44;;;8.52;77.90
72892;BME280;61032;50.782;6.818;2023-04-30T02:09:39;101160.53;;;8.57;77.97
72892;BME280;61032;50.782;6.818;2023-04-30T02:10:39;101152.00;;;8.58;77.47
72892;BME280;61032;50.782;6.818;2023-04-30T02:11:40;101155.88;;;8.57;77.48
72892;BME280;61032;50.782;6.818;2023-04-30T02:12:40;101157.78;;;8.57;77.55
72892;BME280;61032;50.782;6.818;2023-04-30T02:13:40;101155.66;;;8.54;78.28
72892;BME280;61032;50.782;6.818;2023-04-30T02:14:41;101156.16;;;8.56;78.13
72892;BME280;61032;50.782;6.818;2023-04-30T02:15:41;101158.09;;;8.55;77.82
72892;BME280;61032;50.782;6.818;2023-04-30T02:16:41;101156.69;;;8.58;78.03
72892;BME280;61032;50.782;6.818;2023-04-30T02:17:42;101159.22;;;8.54;78.05
72892;BME280;61032;50.782;6.818;2023-04-30T02:18:42;101162.06;;;8.49;77.81
72892;BME280;61032;50.782;6.818;2023-04-30T02:19:42;101157.47;;;8.45;77.79
72892;BME280;61032;50.782;6.818;2023-04-30T02:20:43;101161.09;;;8.40;77.62
72892;BME280;61032;50.782;6.818;2023-04-30T02:21:43;101161.19;;;8.35;78.10
72892;BME280;61032;50.782;6.818;2023-04-30T02:22:43;101162.88;;;8.31;78.71
72892;BME280;61032;50.782;6.818;2023-04-30T02:23:44;101159.53;;;8.34;78.91
72892;BME280;61032;50.782;6.818;2023-04-30T02:24:44;101161.47;;;8.34;79.08
72892;BME280;61032;50.782;6.818;2023-04-30T02:25:44;101154.38;;;8.33;78.81
72892;BME280;61032;50.782;6.818;2023-04-30T02:26:45;101161.47;;;8.34;79.00
72892;BME280;61032;50.782;6.818;2023-04-30T02:27:45;101154.28;;;8.38;79.03
72892;BME280;61032;50.782;6.818;2023-04-30T02:28:45;101154.88;;;8.35;78.56
72892;BME280;61032;50.782;6.818;2023-04-30T02:29:46;101154.59;;;8.36;78.45
72892;BME280;61032;50.782;6.818;2023-04-30T02:30:46;101153.69;;;8.41;77.99
72892;BME280;61032;50.782;6.818;2023-04-30T02:31:46;101151.16;;;8.44;77.16
72892;BME280;61032;50.782;6.818;2023-04-30T02:32:47;101157.47;;;8.45;77.28
72892;BME280;61032;50.782;6.818;2023-04-30T02:33:47;101153.31;;;8.47;76.76
72892;BME280;61032;50.782;6.818;2023-04-30T02:34:47;101148.34;;;8.49;76.42
72892;BME280;61032;50.782;6.818;2023-04-30T02:35:48;101152.50;;;8.47;76.48
72892;BME280;61032;50.782;6.818;2023-04-30T02:36:48;101147.69;;;8.39;76.56
72892;BME280;61032;50.782;6.818;2023-04-30T02:37:48;101151.84;;;8.36;76.89
72892;BME280;61032;50.782;6.818;2023-04-30T02:38:49;101153.03;;;8.30;76.58
72892;BME280;61032;50.782;6.818;2023-04-30T02:39:50;101158.00;;;8.28;77.00
72892;BME280;61032;50.782;6.818;2023-04-30T02:40:50;101158.19;;;8.32;76.77
72892;BME280;61032;50.782;6.818;2023-04-30T02:41:51;101157.09;;;8.33;76.73
72892;BME280;61032;50.782;6.818;2023-04-30T02:42:51;101165.53;;;8.36;76.42
72892;BME280;61032;50.782;6.818;2023-04-30T02:43:53;101165.31;;;8.33;76.59
72892;BME280;61032;50.782;6.818;2023-04-30T02:44:54;101168.66;;;8.30;76.56
72892;BME280;61032;50.782;6.818;2023-04-30T02:45:54;101160.44;;;8.30;76.73
72892;BME280;61032;50.782;6.818;2023-04-30T02:46:55;101163.84;;;8.21;76.33
72892;BME280;61032;50.782;6.818;2023-04-30T02:47:55;101164.31;;;8.10;76.66
72892;BME280;61032;50.782;6.818;2023-04-30T02:48:55;101170.38;;;8.07;76.88
72892;BME280;61032;50.782;6.818;2023-04-30T02:49:56;101173.94;;;8.07;76.92
72892;BME280;61032;50.782;6.818;2023-04-30T02:50:56;101169.84;;;8.05;77.21
72892;BME280;61032;50.782;6.818;2023-04-30T02:51:56;101166.38;;;7.99;76.85
72892;BME280;61032;50.782;6.818;2023-04-30T02:52:57;101171.25;;;8.02;76.80
72892;BME280;61032;50.782;6.818;2023-04-30T02:53:57;101166.72;;;7.92;76.85
72892;BME280;61032;50.782;6.818;2023-04-30T02:54:57;101170.22;;;7.79;77.76
72892;BME280;61032;50.782;6.818;2023-04-30T02:55:58;101160.59;;;7.82;78.39
72892;BME280;61032;50.782;6.818;2023-04-30T02:56:58;101168.53;;;7.83;78.34
72892;BME280;61032;50.782;6.818;2023-04-30T02:57:58;101170.38;;;7.88;78.35
72892;BME280;61032;50.782;6.818;2023-04-30T02:58:59;101166.53;;;7.89;78.10
72892;BME280;61032;50.782;6.818;2023-04-30T02:59:59;101169.28;;;7.89;77.91
72892;BME280;61032;50.782;6.818;2023-04-30T03:01:00;101167.63;;;7.88;78.04
72892;BME280;61032;50.782;6.818;2023-04-30T03:02:00;101171.47;;;7.87;77.95
72892;BME280;61032;50.782;6.818;2023-04-30T03:03:00;101174.22;;;7.87;77.99
72892;BME280;61032;50.782;6.818;2023-04-30T03:04:01;101173.13;;;7.88;77.98
72892;BME280;61032;50.782;6.818;2023-04-30T03:05:03;101170.72;;;7.81;77.53
72892;BME280;61032;50.782;6.818;2023-04-30T03:06:03;101175.44;;;7.76;78.02
72892;BME280;61032;50.782;6.818;2023-04-30T03:07:04;101173.47;;;7.81;78.23
72892;BME280;61032;50.782;6.818;2023-04-30T03:08:05;101174.81;;;7.84;78.06
72892;BME280;61032;50.782;6.818;2023-04-30T03:09:06;101173.19;;;7.83;78.16
72892;BME280;61032;50.782;6.818;2023-04-30T03:10:07;101172.59;;;7.86;78.33
72892;BME280;61032;50.782;6.818;2023-04-30T03:11:08;101176.06;;;7.91;77.86
72892;BME280;61032;50.782;6.818;2023-04-30T03:12:08;101168.06;;;7.95;77.64
72892;BME280;61032;50.782;6.818;2023-04-30T03:13:08;101172.94;;;7.98;77.55
72892;BME280;61032;50.782;6.818;2023-04-30T03:14:09;101172.94;;;7.98;77.75
72892;BME280;61032;50.782;6.818;2023-04-30T03:15:09;101175.69;;;7.98;77.70
72892;BME280;61032;50.782;6.818;2023-04-30T03:16:09;101166.97;;;7.96;78.16
72892;BME280;61032;50.782;6.818;2023-04-30T03:17:10;101167.47;;;7.98;77.64
72892;BME280;61032;50.782;6.818;2023-04-30T03:18:10;101162.34;;;7.91;77.19
72892;BME280;61032;50.782;6.818;2023-04-30T03:19:11;101163.28;;;7.87;77.73
72892;BME280;61032;50.782;6.818;2023-04-30T03:20:11;101166.59;;;7.84;77.85
72892;BME280;61032;50.782;6.818;2023-04-30T03:21:13;101151.69;;;7.90;77.56
72892;BME280;61032;50.782;6.818;2023-04-30T03:22:14;101158.63;;;7.87;77.50
72892;BME280;61032;50.782;6.818;2023-04-30T03:23:14;101156.22;;;7.81;77.72
72892;BME280;61032;50.782;6.818;2023-04-30T03:24:15;101154.03;;;7.83;77.82
72892;BME280;61032;50.782;6.818;2023-04-30T03:25:15;101155.59;;;7.89;77.56
72892;BME280;61032;50.782;6.818;2023-04-30T03:26:16;101157.50;;;7.88;77.53
72892;BME280;61032;50.782;6.818;2023-04-30T03:27:16;101156.97;;;7.86;77.64
72892;BME280;61032;50.782;6.818;2023-04-30T03:28:16;101161.19;;;7.79;77.49
72892;BME280;61032;50.782;6.818;2023-04-30T03:29:17;101159.78;;;7.81;77.36
72892;BME280;61032;50.782;6.818;2023-04-30T03:30:17;101156.81;;;7.78;77.53
72892;BME280;61032;50.782;6.818;2023-04-30T03:31:17;101155.72;;;7.79;77.54
72892;BME280;61032;50.782;6.818;2023-04-30T03:32:18;101150.81;;;7.76;77.50
72892;BME280;61032;50.782;6.818;2023-04-30T03:33:18;101151.19;;;7.69;77.11
72892;BME280;61032;50.782;6.818;2023-04-30T03:34:18;101152.00;;;7.70;77.58
72892;BME280;61032;50.782;6.818;2023-04-30T03:35:19;101150.97;;;7.66;76.99
72892;BME280;61032;50.782;6.818;2023-04-30T03:36:19;101155.41;;;7.62;76.98
72892;BME280;61032;50.782;6.818;2023-04-30T03:37:20;101152.44;;;7.58;76.89
72892;BME280;61032;50.782;6.818;2023-04-30T03:38:20;101151.69;;;7.52;77.22
72892;BME280;61032;50.782;6.818;2023-04-30T03:39:20;101153.38;;;7.48;77.59
72892;BME280;61032;50.782;6.818;2023-04-30T03:40:20;101154.41;;;7.52;77.86
72892;BME280;61032;50.782;6.818;2023-04-30T03:41:21;101151.16;;;7.50;77.72
72892;BME280;61032;50.782;6.818;2023-04-30T03:42:22;101153.53;;;7.38;78.11
72892;BME280;61032;50.782;6.818;2023-04-30T03:43:22;101160.56;;;7.44;78.31
72892;BME280;61032;50.782;6.818;2023-04-30T03:44:23;101152.88;;;7.46;78.39
72892;BME280;61032;50.782;6.818;2023-04-30T03:45:23;101155.91;;;7.45;78.32
72892;BME280;61032;50.782;6.818;2023-04-30T03:46:24;101153.63;;;7.28;77.76
72892;BME280;61032;50.782;6.818;2023-04-30T03:47:24;101155.34;;;7.24;78.86
72892;BME280;61032;50.782;6.818;2023-04-30T03:48:25;101156.50;;;7.18;79.01
72892;BME280;61032;50.782;6.818;2023-04-30T03:49:26;101159.22;;;7.18;79.04
72892;BME280;61032;50.782;6.818;2023-04-30T03:50:26;101152.19;;;7.12;79.89
72892;BME280;61032;50.782;6.818;2023-04-30T03:51:26;101152.19;;;7.12;79.93
72892;BME280;61032;50.782;6.818;2023-04-30T03:52:27;101158.66;;;7.21;78.95
72892;BME280;61032;50.782;6.818;2023-04-30T03:53:27;101152.94;;;7.17;78.20
72892;BME280;61032;50.782;6.818;2023-04-30T03:54:28;101149.59;;;7.02;78.93
72892;BME280;61032;50.782;6.818;2023-04-30T03:55:28;101153.47;;;6.96;78.75
72892;BME280;61032;50.782;6.818;2023-04-30T03:56:28;101154.31;;;6.91;79.88
72892;BME280;61032;50.782;6.818;2023-04-30T03:57:29;101151.03;;;6.94;79.39
72892;BME280;61032;50.782;6.818;2023-04-30T03:58:30;101157.25;;;7.00;79.61
72892;BME280;61032;50.782;6.818;2023-04-30T03:59:31;101152.31;;;7.02;79.49
72892;BME280;61032;50.782;6.818;2023-04-30T04:00:32;101163.00;;;6.98;79.18
72892;BME280;61032;50.782;6.818;2023-04-30T04:01:32;101153.22;;;6.92;79.48
72892;BME280;61032;50.782;6.818;2023-04-30T04:02:33;101147.91;;;7.06;79.44
72892;BME280;61032;50.782;6.818;2023-04-30T04:03:34;101158.72;;;7.16;79.46
72892;BME280;61032;50.782;6.818;2023-04-30T04:04:34;101157.38;;;7.13;79.62
72892;BME280;61032;50.782;6.818;2023-04-30T04:05:35;101156.03;;;7.11;80.00
72892;BME280;61032;50.782;6.818;2023-04-30T04:06:35;101153.00;;;7.12;79.87
72892;BME280;61032;50.782;6.818;2023-04-30T04:07:35;101156.91;;;7.06;80.55
72892;BME280;61032;50.782;6.818;2023-04-30T04:08:35;101149.38;;;6.93;81.36
72892;BME280;61032;50.782;6.818;2023-04-30T04:09:36;101153.41;;;7.01;81.45
72892;BME280;61032;50.782;6.818;2023-04-30T04:10:38;101162.44;;;7.01;80.70
72892;BME280;61032;50.782;6.818;2023-04-30T04:11:39;101156.56;;;7.13;80.09
72892;BME280;61032;50.782;6.818;2023-04-30T04:12:39;101159.00;;;7.14;80.22
72892;BME280;61032;50.782;6.818;2023-04-30T04:13:39;101152.75;;;7.09;80.07
72892;BME280;61032;50.782;6.818;2023-04-30T04:14:40;101166.84;;;7.21;80.42
72892;BME280;61032;50.782;6.818;2023-04-30T04:15:40;101156.97;;;7.25;80.71
72892;BME280;61032;50.782;6.818;2023-04-30T04:16:41;101161.38;;;7.21;80.34
72892;BME280;61032;50.782;6.818;2023-04-30T04:17:41;101156.69;;;7.27;80.44
72892;BME280;61032;50.782;6.818;2023-04-30T04:18:42;101154.16;;;7.30;80.20
72892;BME280;61032;50.782;6.818;2023-04-30T04:19:42;101156.34;;;7.28;80.31
72892;BME280;61032;50.782;6.818;2023-04-30T04:20:42;101158.06;;;7.24;79.73
72892;BME280;61032;50.782;6.818;2023-04-30T04:21:43;101158.66;;;7.21;80.02
72892;BME280;61032;50.782;6.818;2023-04-30T04:22:43;101158.66;;;7.21;80.38
72892;BME280;61032;50.782;6.818;2023-04-30T04:23:43;101159.22;;;7.18;80.16
72892;BME280;61032;50.782;6.818;2023-04-30T04:24:43;101163.88;;;7.17;80.80
72892;BME280;61032;50.782;6.818;2023-04-30T04:25:45;101159.47;;;7.21;80.95
72892;BME280;61032;50.782;6.818;2023-04-30T04:26:45;101166.84;;;7.21;80.22
72892;BME280;61032;50.782;6.818;2023-04-30T04:27:45;101171.28;;;7.17;80.17
72892;BME280;61032;50.782;6.818;2023-04-30T04:28:46;101168.25;;;7.18;80.91
72892;BME280;61032;50.782;6.818;2023-04-30T04:29:47;101166.16;;;7.34;79.78
72892;BME280;61032;50.782;6.818;2023-04-30T04:30:47;101170.34;;;7.27;79.39
72892;BME280;61032;50.782;6.818;2023-04-30T04:31:48;101164.06;;;7.26;79.15
72892;BME280;61032;50.782;6.818;2023-04-30T04:32:50;101169.53;;;7.26;79.45
72892;BME280;61032;50.782;6.818;2023-04-30T04:33:53;101165.63;;;7.32;79.56
72892;BME280;61032;50.782;6.818;2023-04-30T04:34:57;101173.25;;;7.35;80.04
72892;BME280;61032;50.782;6.818;2023-04-30T04:35:58;101169.41;;;7.36;79.97
72892;BME280;61032;50.782;6.818;2023-04-30T04:36:58;101175.44;;;7.33;79.86
72892;BME280;61032;50.782;6.818;2023-04-30T04:37:59;101176.75;;;7.41;79.80
72892;BME280;61032;50.782;6.818;2023-04-30T04:39:00;101177.41;;;7.51;79.92
72892;BME280;61032;50.782;6.818;2023-04-30T04:40:04;101171.75;;;7.48;79.59
72892;BME280;61032;50.782;6.818;2023-04-30T04:41:04;101166.31;;;7.43;80.38
72892;BME280;61032;50.782;6.818;2023-04-30T04:42:04;101169.88;;;7.43;80.15
72892;BME280;61032;50.782;6.818;2023-04-30T04:43:05;101169.88;;;7.43;80.42
72892;BME280;61032;50.782;6.818;2023-04-30T04:44:05;101172.59;;;7.43;79.97
72892;BME280;61032;50.782;6.818;2023-04-30T04:45:06;101167.72;;;7.40;80.12
72892;BME280;61032;50.782;6.818;2023-04-30T04:46:07;101171.28;;;7.41;80.59
72892;BME280;61032;50.782;6.818;2023-04-30T04:47:08;101167.44;;;7.42;80.14
72892;BME280;61032;50.782;6.818;2023-04-30T04:48:09;101168.81;;;7.39;80.15
72892;BME280;61032;50.782;6.818;2023-04-30T04:49:09;101172.91;;;7.42;79.71
72892;BME280;61032;50.782;6.818;2023-04-30T04:50:10;101169.88;;;7.43;80.02
72892;BME280;61032;50.782;6.818;2023-04-30T04:51:10;101181.34;;;7.45;79.54
72892;BME280;61032;50.782;6.818;2023-04-30T04:52:11;101175.25;;;7.48;79.13
72892;BME280;61032;50.782;6.818;2023-04-30T04:53:11;101185.72;;;7.46;78.68
72892;BME280;61032;50.782;6.818;2023-04-30T04:54:13;101183.03;;;7.41;79.30
72892;BME280;61032;50.782;6.818;2023-04-30T04:55:13;101183.84;;;7.42;79.12
72892;BME280;61032;50.782;6.818;2023-04-30T04:56:13;101185.41;;;7.48;79.07
72892;BME280;61032;50.782;6.818;2023-04-30T04:57:14;101195.84;;;7.46;79.08
72892;BME280;61032;50.782;6.818;2023-04-30T04:58:14;101193.63;;;7.48;79.32
72892;BME280;61032;50.782;6.818;2023-04-30T04:59:16;101198.34;;;7.42;78.87
72892;BME280;61032;50.782;6.818;2023-04-30T05:00:16;101196.41;;;7.43;79.01
72892;BME280;61032;50.782;6.818;2023-04-30T05:01:17;101195.59;;;7.42;78.72
72892;BME280;61032;50.782;6.818;2023-04-30T05:02:18;101193.97;;;7.41;78.77
72892;BME280;61032;50.782;6.818;2023-04-30T05:03:18;101203.22;;;7.45;78.88
72892;BME280;61032;50.782;6.818;2023-04-30T05:04:20;101199.38;;;7.46;78.67
72892;BME280;61032;50.782;6.818;2023-04-30T05:05:20;101201.00;;;7.47;78.82
72892;BME280;61032;50.782;6.818;2023-04-30T05:06:20;101196.84;;;7.50;78.48
72892;BME280;61032;50.782;6.818;2023-04-30T05:07:21;101201.81;;;7.48;78.60
72892;BME280;61032;50.782;6.818;2023-04-30T05:08:21;101200.19;;;7.47;78.46
72892;BME280;61032;50.782;6.818;2023-04-30T05:09:21;101203.13;;;7.50;78.69
72892;BME280;61032;50.782;6.818;2023-04-30T05:10:22;101202.13;;;7.46;77.66
72892;BME280;61032;50.782;6.818;2023-04-30T05:11:22;101201.75;;;7.53;77.10
72892;BME280;61032;50.782;6.818;2023-04-30T05:12:22;101205.34;;;7.48;78.27
72892;BME280;61032;50.782;6.818;2023-04-30T05:13:23;101208.59;;;7.50;78.48
72892;BME280;61032;50.782;6.818;2023-04-30T05:14:23;101210.38;;;7.41;79.28
72892;BME280;61032;50.782;6.818;2023-04-30T05:15:23;101208.97;;;7.44;79.38
72892;BME280;61032;50.782;6.818;2023-04-30T05:16:24;101212.78;;;7.48;79.15
72892;BME280;61032;50.782;6.818;2023-04-30T05:17:25;101206.63;;;7.56;79.12
72892;BME280;61032;50.782;6.818;2023-04-30T05:18:25;101206.41;;;7.52;78.42
72892;BME280;61032;50.782;6.818;2023-04-30T05:19:26;101206.41;;;7.52;77.41
72892;BME280;61032;50.782;6.818;2023-04-30T05:20:26;101205.81;;;7.55;77.74
72892;BME280;61032;50.782;6.818;2023-04-30T05:21:26;101204.31;;;7.44;78.30
72892;BME280;61032;50.782;6.818;2023-04-30T05:22:28;101207.94;;;7.40;78.97
72892;BME280;61032;50.782;6.818;2023-04-30T05:23:29;101212.97;;;7.51;79.16
72892;BME280;61032;50.782;6.818;2023-04-30T05:24:29;101207.22;;;7.53;79.31
72892;BME280;61032;50.782;6.818;2023-04-30T05:25:29;101215.13;;;7.54;78.67
72892;BME280;61032;50.782;6.818;2023-04-30T05:26:30;101211.75;;;7.63;79.09
72892;BME280;61032;50.782;6.818;2023-04-30T05:27:30;101205.91;;;7.69;79.84
72892;BME280;61032;50.782;6.818;2023-04-30T05:28:30;101208.88;;;7.73;78.62
72892;BME280;61032;50.782;6.818;2023-04-30T05:29:31;101214.34;;;7.73;78.28
72892;BME280;61032;50.782;6.818;2023-04-30T05:30:31;101208.81;;;7.78;78.65
72892;BME280;61032;50.782;6.818;2023-04-30T05:31:31;101207.78;;;7.74;78.42
72892;BME280;61032;50.782;6.818;2023-04-30T05:32:32;101212.44;;;7.73;78.93
72892;BME280;61032;50.782;6.818;2023-04-30T05:33:32;101212.31;;;7.83;78.88
72892;BME280;61032;50.782;6.818;2023-04-30T05:34:32;101216.97;;;7.83;78.40
72892;BME280;61032;50.782;6.818;2023-04-30T05:35:33;101217.19;;;7.86;78.08